Time,TemperatureF,DewpointF,PressureIn,WindDirection,WindDirectionDegrees,WindSpeedMPH,WindSpeedGustMPH,Humidity,HourlyPrecipIn,Conditions,Clouds,dailyrainin,SoftwareType,DateUTC
2013-11-04 00:00:00,62.5,52.2,29.46,North,0,0.0,0.0,69,0.00,,,0.00,WUHU216HW,2013-11-04 06:00:00,
2013-11-04 00:05:00,62.5,52.2,29.46,North,0,0.0,0.0,69,0.00,,,0.00,WUHU216HW,2013-11-04 06:05:00,
2013-11-04 00:30:00,62.5,52.2,29.47,North,0,0.0,0.0,69,0.00,,,0.00,WUHU216HW,2013-11-04 06:30:00,
2013-11-04 00:35:00,62.5,52.2,29.47,North,0,0.0,0.0,69,0.00,,,0.00,WUHU216HW,2013-11-04 06:35:00,
2013-11-04 01:00:00,62.3,52.4,29.46,North,0,0.0,0.0,70,0.00,,,0.00,WUHU216HW,2013-11-04 07:00:00,
2013-11-04 01:05:00,62.3,52.4,29.46,North,0,0.0,0.0,70,0.00,,,0.00,WUHU216HW,2013-11-04 07:05:00,
2013-11-04 01:30:00,62.3,52.4,29.45,North,0,0.0,0.0,70,0.00,,,0.00,WUHU216HW,2013-11-04 07:30:00,
2013-11-04 01:35:00,62.3,52.4,29.45,North,0,0.0,0.0,70,0.00,,,0.00,WUHU216HW,2013-11-04 07:35:00,
2013-11-04 02:00:00,61.7,51.9,29.42,North,0,0.0,0.0,70,0.00,,,0.00,WUHU216HW,2013-11-04 08:00:00,
2013-11-04 02:05:00,61.7,51.9,29.42,North,0,0.0,0.0,70,0.00,,,0.00,WUHU216HW,2013-11-04 08:05:00,
2013-11-04 02:30:00,61.4,51.9,29.44,North,0,0.0,0.0,71,0.00,,,0.00,WUHU216HW,2013-11-04 08:30:00,
2013-11-04 02:35:00,61.4,51.9,29.44,North,0,0.0,0.0,71,0.00,,,0.00,WUHU216HW,2013-11-04 08:35:00,
2013-11-04 03:00:00,61.4,51.9,29.41,North,0,0.0,0.0,71,0.00,,,0.00,WUHU216HW,2013-11-04 09:00:00,
2013-11-04 03:05:00,61.4,51.9,29.41,North,0,0.0,0.0,71,0.00,,,0.00,WUHU216HW,2013-11-04 09:05:00,
2013-11-04 03:30:00,61.2,52.2,29.41,North,0,0.0,0.0,72,0.00,,,0.00,WUHU216HW,2013-11-04 09:30:00,
2013-11-04 03:35:00,61.2,52.2,29.41,North,0,0.0,0.0,72,0.00,,,0.00,WUHU216HW,2013-11-04 09:35:00,
2013-11-04 04:00:00,61.2,52.6,29.41,North,0,0.0,0.0,73,0.00,,,0.00,WUHU216HW,2013-11-04 10:00:00,
2013-11-04 04:05:00,61.2,52.6,29.41,North,0,0.0,0.0,73,0.00,,,0.00,WUHU216HW,2013-11-04 10:05:00,
2013-11-04 04:30:00,61.2,52.6,29.41,North,0,0.0,0.0,73,0.00,,,0.00,WUHU216HW,2013-11-04 10:30:00,
2013-11-04 04:35:00,61.2,52.6,29.41,North,0,0.0,0.0,73,0.00,,,0.00,WUHU216HW,2013-11-04 10:35:00,
2013-11-04 05:00:00,60.8,52.2,29.41,North,0,0.0,0.0,73,0.00,,,0.00,WUHU216HW,2013-11-04 11:00:00,
2013-11-04 05:05:00,60.8,52.2,29.41,North,0,0.0,0.0,73,0.00,,,0.00,WUHU216HW,2013-11-04 11:05:00,
2013-11-04 05:30:00,60.8,52.6,29.42,North,0,0.0,0.0,74,0.00,,,0.00,WUHU216HW,2013-11-04 11:30:00,
2013-11-04 05:35:00,60.8,52.6,29.42,North,0,0.0,0.0,74,0.00,,,0.00,WUHU216HW,2013-11-04 11:35:00,
2013-11-04 06:00:00,60.7,52.7,29.44,North,0,0.0,0.0,75,0.00,,,0.00,WUHU216HW,2013-11-04 12:00:00,
2013-11-04 06:05:00,60.7,52.7,29.44,North,0,0.0,0.0,75,0.00,,,0.00,WUHU216HW,2013-11-04 12:05:00,
2013-11-04 06:30:00,60.8,52.9,29.45,North,0,0.0,0.0,75,0.00,,,0.00,WUHU216HW,2013-11-04 12:30:00,
2013-11-04 06:35:00,60.8,52.9,29.45,North,0,0.0,0.0,75,0.00,,,0.00,WUHU216HW,2013-11-04 12:35:00,
2013-11-04 07:00:00,60.8,53.3,29.45,North,0,0.0,0.0,76,0.00,,,0.00,WUHU216HW,2013-11-04 13:00:00,
2013-11-04 07:05:00,60.8,53.3,29.45,North,0,0.0,0.0,76,0.00,,,0.00,WUHU216HW,2013-11-04 13:05:00,
2013-11-04 07:30:00,60.5,53.6,29.46,North,0,0.0,0.0,78,0.01,,,0.00,WUHU216HW,2013-11-04 13:30:00,
2013-11-04 07:35:00,60.5,53.6,29.46,North,0,0.0,0.0,78,0.01,,,0.00,WUHU216HW,2013-11-04 13:35:00,
2013-11-04 08:00:00,60.1,54.0,29.47,North,0,0.0,0.0,80,0.02,,,0.01,WUHU216HW,2013-11-04 14:00:00,
2013-11-04 08:05:00,60.1,54.0,29.47,North,0,0.0,0.0,80,0.02,,,0.01,WUHU216HW,2013-11-04 14:05:00,
2013-11-04 08:30:00,60.3,54.6,29.47,North,0,0.0,0.0,81,0.01,,,0.02,WUHU216HW,2013-11-04 14:30:00,
2013-11-04 08:35:00,60.3,54.6,29.47,North,0,0.0,0.0,81,0.01,,,0.02,WUHU216HW,2013-11-04 14:35:00,
2013-11-04 09:00:00,61.6,55.7,29.47,North,0,0.0,0.0,81,0.00,,,0.02,WUHU216HW,2013-11-04 15:00:00,
2013-11-04 09:05:00,61.6,55.7,29.47,North,0,0.0,0.0,81,0.00,,,0.02,WUHU216HW,2013-11-04 15:05:00,
2013-11-04 09:30:00,62.5,56.2,29.48,North,0,0.0,0.0,80,0.00,,,0.02,WUHU216HW,2013-11-04 15:30:00,
2013-11-04 09:35:00,62.5,56.2,29.48,North,0,0.0,0.0,80,0.00,,,0.02,WUHU216HW,2013-11-04 15:35:00,
2013-11-04 10:00:00,63.0,57.1,29.47,North,0,0.0,0.0,81,0.00,,,0.02,WUHU216HW,2013-11-04 16:00:00,
2013-11-04 10:05:00,63.0,57.1,29.47,North,0,0.0,0.0,81,0.00,,,0.02,WUHU216HW,2013-11-04 16:05:00,
2013-11-04 10:30:00,64.4,58.5,29.47,North,0,0.0,0.0,81,0.00,,,0.02,WUHU216HW,2013-11-04 16:30:00,
2013-11-04 10:35:00,64.4,58.5,29.47,North,0,0.0,0.0,81,0.00,,,0.02,WUHU216HW,2013-11-04 16:35:00,
2013-11-04 11:00:00,65.2,58.9,29.46,North,0,0.0,0.0,80,0.00,,,0.02,WUHU216HW,2013-11-04 17:00:00,
2013-11-04 11:05:00,65.2,58.9,29.46,North,0,0.0,0.0,80,0.00,,,0.02,WUHU216HW,2013-11-04 17:05:00,
2013-11-04 11:30:00,65.5,58.5,29.44,North,0,0.0,0.0,78,0.00,,,0.02,WUHU216HW,2013-11-04 17:30:00,
2013-11-04 11:35:00,65.5,58.5,29.44,North,0,0.0,0.0,78,0.00,,,0.02,WUHU216HW,2013-11-04 17:35:00,
2013-11-04 12:00:00,65.9,58.5,29.43,North,0,0.0,0.0,77,0.00,,,0.02,WUHU216HW,2013-11-04 18:00:00,
2013-11-04 12:05:00,65.9,58.5,29.43,North,0,0.0,0.0,77,0.00,,,0.02,WUHU216HW,2013-11-04 18:05:00,
2013-11-04 12:30:00,66.6,58.8,29.42,North,0,0.0,0.0,76,0.00,,,0.02,WUHU216HW,2013-11-04 18:30:00,
2013-11-04 12:35:00,66.6,58.8,29.42,North,0,0.0,0.0,76,0.00,,,0.02,WUHU216HW,2013-11-04 18:35:00,
2013-11-04 13:00:00,67.0,59.1,29.40,North,0,0.0,0.0,76,0.00,,,0.02,WUHU216HW,2013-11-04 19:00:00,
2013-11-04 13:05:00,67.0,59.1,29.40,North,0,0.0,0.0,76,0.00,,,0.02,WUHU216HW,2013-11-04 19:05:00,
2013-11-04 13:30:00,67.5,59.0,29.39,North,0,0.0,0.0,74,0.00,,,0.02,WUHU216HW,2013-11-04 19:30:00,
2013-11-04 13:35:00,67.5,59.0,29.39,North,0,0.0,0.0,74,0.00,,,0.02,WUHU216HW,2013-11-04 19:35:00,
2013-11-04 14:00:00,69.8,60.3,29.39,North,0,0.0,0.0,72,0.00,,,0.02,WUHU216HW,2013-11-04 20:00:00,
2013-11-04 14:05:00,69.8,60.3,29.39,North,0,0.0,0.0,72,0.00,,,0.02,WUHU216HW,2013-11-04 20:05:00,
2013-11-04 14:30:00,70.9,60.7,29.38,North,0,0.0,0.0,70,0.00,,,0.02,WUHU216HW,2013-11-04 20:30:00,
2013-11-04 14:35:00,70.9,60.7,29.38,North,0,0.0,0.0,70,0.00,,,0.02,WUHU216HW,2013-11-04 20:35:00,
2013-11-04 15:00:00,69.8,59.6,29.38,North,0,0.0,0.0,70,0.00,,,0.02,WUHU216HW,2013-11-04 21:00:00,
2013-11-04 15:05:00,69.8,59.6,29.38,North,0,0.0,0.0,70,0.00,,,0.02,WUHU216HW,2013-11-04 21:05:00,
2013-11-04 15:30:00,69.7,59.8,29.38,North,0,0.0,0.0,71,0.00,,,0.02,WUHU216HW,2013-11-04 21:30:00,
2013-11-04 15:35:00,69.7,59.8,29.38,North,0,0.0,0.0,71,0.00,,,0.02,WUHU216HW,2013-11-04 21:35:00,
2013-11-04 16:00:00,69.5,59.7,29.38,North,0,0.0,0.0,71,0.00,,,0.02,WUHU216HW,2013-11-04 22:00:00,
2013-11-04 16:05:00,69.5,59.7,29.38,North,0,0.0,0.0,71,0.00,,,0.02,WUHU216HW,2013-11-04 22:05:00,
2013-11-04 16:30:00,68.9,60.0,29.38,North,0,0.0,0.0,73,0.00,,,0.02,WUHU216HW,2013-11-04 22:30:00,
2013-11-04 16:35:00,68.9,60.0,29.38,North,0,0.0,0.0,73,0.00,,,0.02,WUHU216HW,2013-11-04 22:35:00,
2013-11-04 17:00:00,68.9,60.3,29.39,North,0,0.0,0.0,74,0.00,,,0.02,WUHU216HW,2013-11-04 23:00:00,
2013-11-04 17:05:00,68.9,60.3,29.39,North,0,0.0,0.0,74,0.00,,,0.02,WUHU216HW,2013-11-04 23:05:00,
2013-11-04 17:30:00,68.0,59.5,29.39,North,0,0.0,0.0,74,0.00,,,0.02,WUHU216HW,2013-11-04 23:30:00,
2013-11-04 17:35:00,68.0,59.5,29.39,North,0,0.0,0.0,74,0.00,,,0.02,WUHU216HW,2013-11-04 23:35:00,
2013-11-04 18:00:00,67.7,59.9,29.39,North,0,0.0,0.0,76,0.00,,,0.02,WUHU216HW,2013-11-05 00:00:00,
2013-11-04 18:05:00,67.7,59.9,29.39,North,0,0.0,0.0,76,0.00,,,0.02,WUHU216HW,2013-11-05 00:05:00,
2013-11-04 18:30:00,67.3,59.9,29.40,North,0,0.0,0.0,77,0.00,,,0.02,WUHU216HW,2013-11-05 00:30:00,
2013-11-04 18:35:00,67.3,59.9,29.40,North,0,0.0,0.0,77,0.00,,,0.02,WUHU216HW,2013-11-05 00:35:00,
2013-11-04 19:00:00,67.0,60.3,29.41,North,0,0.0,0.0,79,0.00,,,0.02,WUHU216HW,2013-11-05 01:00:00,
2013-11-04 19:05:00,67.0,60.3,29.41,North,0,0.0,0.0,79,0.00,,,0.02,WUHU216HW,2013-11-05 01:05:00,
2013-11-04 19:30:00,66.8,60.5,29.42,North,0,0.0,0.0,80,0.00,,,0.02,WUHU216HW,2013-11-05 01:30:00,
2013-11-04 19:35:00,66.8,60.5,29.42,North,0,0.0,0.0,80,0.00,,,0.02,WUHU216HW,2013-11-05 01:35:00,
2013-11-04 20:00:00,66.4,60.1,29.43,North,0,0.0,0.0,80,0.00,,,0.02,WUHU216HW,2013-11-05 02:00:00,
2013-11-04 20:05:00,66.4,60.1,29.43,North,0,0.0,0.0,80,0.00,,,0.02,WUHU216HW,2013-11-05 02:05:00,
2013-11-04 20:30:00,66.4,60.5,29.43,North,0,0.0,0.0,81,0.00,,,0.02,WUHU216HW,2013-11-05 02:30:00,
2013-11-04 20:35:00,66.4,60.5,29.43,North,0,0.0,0.0,81,0.00,,,0.02,WUHU216HW,2013-11-05 02:35:00,
2013-11-04 21:00:00,66.2,60.3,29.43,North,0,0.0,0.0,81,0.00,,,0.02,WUHU216HW,2013-11-05 03:00:00,
2013-11-04 21:05:00,66.2,60.3,29.43,North,0,0.0,0.0,81,0.00,,,0.02,WUHU216HW,2013-11-05 03:05:00,
2013-11-04 21:30:00,66.2,60.6,29.43,North,0,0.0,0.0,82,0.00,,,0.02,WUHU216HW,2013-11-05 03:30:00,
2013-11-04 21:35:00,66.2,60.6,29.43,North,0,0.0,0.0,82,0.00,,,0.02,WUHU216HW,2013-11-05 03:35:00,
2013-11-04 22:00:00,66.6,60.9,29.43,North,0,0.0,0.0,82,0.00,,,0.02,WUHU216HW,2013-11-05 04:00:00,
2013-11-04 22:05:00,66.6,60.9,29.43,North,0,0.0,0.0,82,0.00,,,0.02,WUHU216HW,2013-11-05 04:05:00,
2013-11-04 22:30:00,66.2,60.6,29.43,North,0,0.0,0.0,82,0.00,,,0.02,WUHU216HW,2013-11-05 04:30:00,
2013-11-04 22:35:00,66.2,60.6,29.43,North,0,0.0,0.0,82,0.00,,,0.02,WUHU216HW,2013-11-05 04:35:00,
2013-11-04 23:00:00,65.7,60.0,29.42,North,0,0.0,0.0,82,0.00,,,0.02,WUHU216HW,2013-11-05 05:00:00,
2013-11-04 23:01:00,65.7,60.0,29.42,North,0,0.0,0.0,82,0.00,,,0.02,WUHU216HW,2013-11-05 05:01:00,
2013-11-04 23:02:00,65.7,60.0,29.42,North,0,0.0,0.0,82,0.00,,,0.02,WUHU216HW,2013-11-05 05:02:00,
2013-11-04 23:07:00,65.7,60.0,29.42,North,0,0.0,0.0,82,0.00,,,0.02,WUHU216HW,2013-11-05 05:07:00,
2013-11-04 23:30:00,65.5,59.9,29.43,North,0,0.0,0.0,82,0.00,,,0.02,WUHU216HW,2013-11-05 05:30:00,
2013-11-04 23:35:00,65.5,59.9,29.43,North,0,0.0,0.0,82,0.00,,,0.02,WUHU216HW,2013-11-05 05:35:00,